sensor_id;sensor_type;location;lat;lon;timestamp;temperature;humidity
6740;DHT22;3407;49.882;10.920;2024-03-17T00:01:44;6.40;1.00
6740;DHT22;3407;49.882;10.920;2024-03-17T00:06:40;6.30;1.00
6740;DHT22;3407;49.882;10.920;2024-03-17T00:11:35;6.10;99.90
6740;DHT22;3407;49.882;10.920;2024-03-17T00:16:31;5.90;1.00
6740;DHT22;3407;49.882;10.920;2024-03-17T00:21:26;5.70;1.00
6740;DHT22;3407;49.882;10.920;2024-03-17T00:26:22;5.60;1.00
6740;DHT22;3407;49.882;10.920;2024-03-17T00:31:17;5.60;1.00
6740;DHT22;3407;49.882;10.920;2024-03-17T00:36:13;5.50;37.40
6740;DHT22;3407;49.882;10.920;2024-03-17T00:41:10;5.50;1.00
6740;DHT22;3407;49.882;10.920;2024-03-17T00:46:05;5.30;1.00
6740;DHT22;3407;49.882;10.920;2024-03-17T00:51:02;5.20;99.90
6740;DHT22;3407;49.882;10.920;2024-03-17T00:55:57;5.20;99.90
6740;DHT22;3407;49.882;10.920;2024-03-17T01:00:53;5.30;1.00
6740;DHT22;3407;49.882;10.920;2024-03-17T01:05:49;5.40;1.00
6740;DHT22;3407;49.882;10.920;2024-03-17T01:10:48;5.50;1.00
6740;DHT22;3407;49.882;10.920;2024-03-17T01:15:45;5.50;99.90
6740;DHT22;3407;49.882;10.920;2024-03-17T01:20:40;5.60;1.00
6740;DHT22;3407;49.882;10.920;2024-03-17T01:25:36;5.70;1.00
6740;DHT22;3407;49.882;10.920;2024-03-17T01:30:32;5.90;1.00
6740;DHT22;3407;49.882;10.920;2024-03-17T01:35:29;5.70;99.90
6740;DHT22;3407;49.882;10.920;2024-03-17T01:40:25;5.50;1.00
6740;DHT22;3407;49.882;10.920;2024-03-17T01:45:28;5.70;1.00
6740;DHT22;3407;49.882;10.920;2024-03-17T01:50:25;5.70;99.90
6740;DHT22;3407;49.882;10.920;2024-03-17T01:55:21;5.70;99.90
6740;DHT22;3407;49.882;10.920;2024-03-17T02:00:17;5.70;1.00
6740;DHT22;3407;49.882;10.920;2024-03-17T02:05:13;5.70;1.00
6740;DHT22;3407;49.882;10.920;2024-03-17T02:10:09;5.70;1.00
6740;DHT22;3407;49.882;10.920;2024-03-17T02:15:05;5.80;1.00
6740;DHT22;3407;49.882;10.920;2024-03-17T02:20:01;5.70;16.60
6740;DHT22;3407;49.882;10.920;2024-03-17T02:24:56;5.50;1.00
6740;DHT22;3407;49.882;10.920;2024-03-17T02:29:52;5.50;99.90
6740;DHT22;3407;49.882;10.920;2024-03-17T02:34:47;5.30;99.90
6740;DHT22;3407;49.882;10.920;2024-03-17T02:39:43;5.20;1.00
6740;DHT22;3407;49.882;10.920;2024-03-17T02:44:38;5.00;99.90
6740;DHT22;3407;49.882;10.920;2024-03-17T02:49:36;4.90;99.90
6740;DHT22;3407;49.882;10.920;2024-03-17T02:54:32;4.80;1.00
6740;DHT22;3407;49.882;10.920;2024-03-17T02:59:31;4.70;1.00
6740;DHT22;3407;49.882;10.920;2024-03-17T03:04:27;4.50;1.00
6740;DHT22;3407;49.882;10.920;2024-03-17T03:09:22;4.40;99.90
6740;DHT22;3407;49.882;10.920;2024-03-17T03:14:21;4.30;99.90
6740;DHT22;3407;49.882;10.920;2024-03-17T03:19:17;4.20;99.90
6740;DHT22;3407;49.882;10.920;2024-03-17T03:24:15;4.10;99.90
6740;DHT22;3407;49.882;10.920;2024-03-17T03:29:11;4.20;99.90
6740;DHT22;3407;49.882;10.920;2024-03-17T03:34:07;4.10;99.90
6740;DHT22;3407;49.882;10.920;2024-03-17T03:39:06;4.10;99.90
6740;DHT22;3407;49.882;10.920;2024-03-17T03:44:01;4.20;99.90
6740;DHT22;3407;49.882;10.920;2024-03-17T03:48:57;4.20;99.90
6740;DHT22;3407;49.882;10.920;2024-03-17T03:53:53;4.20;1.00
6740;DHT22;3407;49.882;10.920;2024-03-17T03:58:49;4.10;99.90
6740;DHT22;3407;49.882;10.920;2024-03-17T04:03:45;4.00;99.90
6740;DHT22;3407;49.882;10.920;2024-03-17T04:08:41;4.00;99.90
6740;DHT22;3407;49.882;10.920;2024-03-17T04:13:36;4.10;99.90
6740;DHT22;3407;49.882;10.920;2024-03-17T04:18:32;4.10;99.90
6740;DHT22;3407;49.882;10.920;2024-03-17T04:23:30;4.00;99.90
6740;DHT22;3407;49.882;10.920;2024-03-17T04:28:27;4.00;99.90
6740;DHT22;3407;49.882;10.920;2024-03-17T04:33:23;4.10;99.90
6740;DHT22;3407;49.882;10.920;2024-03-17T04:38:18;4.10;1.00
6740;DHT22;3407;49.882;10.920;2024-03-17T04:43:16;4.10;99.90
6740;DHT22;3407;49.882;10.920;2024-03-17T04:48:11;4.30;99.90
6740;DHT22;3407;49.882;10.920;2024-03-17T04:53:07;4.40;40.30
6740;DHT22;3407;49.882;10.920;2024-03-17T04:58:03;4.30;99.90
6740;DHT22;3407;49.882;10.920;2024-03-17T05:02:58;4.50;99.90
6740;DHT22;3407;49.882;10.920;2024-03-17T05:07:54;4.60;99.90
6740;DHT22;3407;49.882;10.920;2024-03-17T05:12:49;4.60;99.90
6740;DHT22;3407;49.882;10.920;2024-03-17T05:17:45;4.70;1.00
6740;DHT22;3407;49.882;10.920;2024-03-17T05:22:40;4.90;99.90
6740;DHT22;3407;49.882;10.920;2024-03-17T05:27:36;4.80;99.90
6740;DHT22;3407;49.882;10.920;2024-03-17T05:32:31;4.80;99.90
6740;DHT22;3407;49.882;10.920;2024-03-17T05:37:27;4.70;99.90
6740;DHT22;3407;49.882;10.920;2024-03-17T05:42:23;4.80;99.90
6740;DHT22;3407;49.882;10.920;2024-03-17T05:47:19;4.90;99.90
6740;DHT22;3407;49.882;10.920;2024-03-17T05:52:14;5.00;99.90
6740;DHT22;3407;49.882;10.920;2024-03-17T05:57:10;5.20;99.90
6740;DHT22;3407;49.882;10.920;2024-03-17T06:02:07;5.30;99.90
6740;DHT22;3407;49.882;10.920;2024-03-17T06:07:05;5.30;99.90
6740;DHT22;3407;49.882;10.920;2024-03-17T06:12:01;5.40;99.90
6740;DHT22;3407;49.882;10.920;2024-03-17T06:16:56;5.40;99.90
6740;DHT22;3407;49.882;10.920;2024-03-17T06:21:52;5.40;99.90
6740;DHT22;3407;49.882;10.920;2024-03-17T06:26:50;5.60;99.90
6740;DHT22;3407;49.882;10.920;2024-03-17T06:31:46;5.80;99.90
6740;DHT22;3407;49.882;10.920;2024-03-17T06:36:42;6.00;99.90
6740;DHT22;3407;49.882;10.920;2024-03-17T06:41:38;6.20;99.90
6740;DHT22;3407;49.882;10.920;2024-03-17T06:46:33;6.30;1.00
6740;DHT22;3407;49.882;10.920;2024-03-17T06:51:29;6.20;1.00
6740;DHT22;3407;49.882;10.920;2024-03-17T06:56:24;6.50;99.90
6740;DHT22;3407;49.882;10.920;2024-03-17T07:01:20;6.70;1.00
6740;DHT22;3407;49.882;10.920;2024-03-17T07:06:16;6.70;10.00
6740;DHT22;3407;49.882;10.920;2024-03-17T07:11:11;6.90;1.00
6740;DHT22;3407;49.882;10.920;2024-03-17T07:16:07;7.10;62.50
6740;DHT22;3407;49.882;10.920;2024-03-17T07:21:03;7.30;99.90
6740;DHT22;3407;49.882;10.920;2024-03-17T07:26:01;7.90;99.90
6740;DHT22;3407;49.882;10.920;2024-03-17T07:30:59;8.20;99.90
6740;DHT22;3407;49.882;10.920;2024-03-17T07:35:57;8.60;99.90
6740;DHT22;3407;49.882;10.920;2024-03-17T07:41:00;8.70;99.90
6740;DHT22;3407;49.882;10.920;2024-03-17T07:46:32;8.90;99.90
6740;DHT22;3407;49.882;10.920;2024-03-17T07:51:21;9.40;99.90
6740;DHT22;3407;49.882;10.920;2024-03-17T07:56:17;10.40;1.00
6740;DHT22;3407;49.882;10.920;2024-03-17T08:01:14;10.80;1.00
6740;DHT22;3407;49.882;10.920;2024-03-17T08:06:10;12.30;1.00
6740;DHT22;3407;49.882;10.920;2024-03-17T08:11:06;16.70;99.90
6740;DHT22;3407;49.882;10.920;2024-03-17T08:16:03;20.50;99.90
6740;DHT22;3407;49.882;10.920;2024-03-17T08:21:01;21.40;99.90
6740;DHT22;3407;49.882;10.920;2024-03-17T08:26:00;19.40;99.90
6740;DHT22;3407;49.882;10.920;2024-03-17T08:31:00;17.40;99.90
6740;DHT22;3407;49.882;10.920;2024-03-17T08:36:06;17.90;99.90
6740;DHT22;3407;49.882;10.920;2024-03-17T08:41:07;20.70;99.90
6740;DHT22;3407;49.882;10.920;2024-03-17T08:46:04;22.10;99.90
6740;DHT22;3407;49.882;10.920;2024-03-17T08:51:01;23.00;99.90
6740;DHT22;3407;49.882;10.920;2024-03-17T08:55:58;23.10;99.90
6740;DHT22;3407;49.882;10.920;2024-03-17T09:00:54;23.80;99.90
6740;DHT22;3407;49.882;10.920;2024-03-17T09:05:49;24.30;99.90
6740;DHT22;3407;49.882;10.920;2024-03-17T09:10:47;24.80;99.90
6740;DHT22;3407;49.882;10.920;2024-03-17T09:16:01;25.30;99.90
6740;DHT22;3407;49.882;10.920;2024-03-17T09:21:04;24.60;99.90
6740;DHT22;3407;49.882;10.920;2024-03-17T09:26:05;24.10;99.90
6740;DHT22;3407;49.882;10.920;2024-03-17T09:31:01;23.70;99.90
6740;DHT22;3407;49.882;10.920;2024-03-17T09:35:59;23.70;99.90
6740;DHT22;3407;49.882;10.920;2024-03-17T09:40:56;21.50;99.90
6740;DHT22;3407;49.882;10.920;2024-03-17T09:45:58;22.50;99.90
6740;DHT22;3407;49.882;10.920;2024-03-17T09:50:58;23.20;99.90
6740;DHT22;3407;49.882;10.920;2024-03-17T10:00:57;23.90;99.90
6740;DHT22;3407;49.882;10.920;2024-03-17T10:05:59;23.60;99.90
6740;DHT22;3407;49.882;10.920;2024-03-17T10:10:55;24.40;99.90
6740;DHT22;3407;49.882;10.920;2024-03-17T10:15:51;23.30;99.90
6740;DHT22;3407;49.882;10.920;2024-03-17T10:20:46;23.10;99.90
6740;DHT22;3407;49.882;10.920;2024-03-17T10:25:42;23.60;99.70
6740;DHT22;3407;49.882;10.920;2024-03-17T10:30:38;24.40;99.90
6740;DHT22;3407;49.882;10.920;2024-03-17T10:35:36;25.40;98.50
6740;DHT22;3407;49.882;10.920;2024-03-17T10:40:35;24.80;95.40
6740;DHT22;3407;49.882;10.920;2024-03-17T10:45:34;23.30;94.00
6740;DHT22;3407;49.882;10.920;2024-03-17T10:50:37;22.80;95.60
6740;DHT22;3407;49.882;10.920;2024-03-17T10:55:42;23.90;99.90
6740;DHT22;3407;49.882;10.920;2024-03-17T11:00:38;25.50;94.80
6740;DHT22;3407;49.882;10.920;2024-03-17T11:05:37;25.10;94.30
6740;DHT22;3407;49.882;10.920;2024-03-17T11:10:36;24.70;91.90
6740;DHT22;3407;49.882;10.920;2024-03-17T11:20:39;25.80;94.10
6740;DHT22;3407;49.882;10.920;2024-03-17T11:35:35;20.00;92.40
6740;DHT22;3407;49.882;10.920;2024-03-17T11:40:31;21.30;94.20
6740;DHT22;3407;49.882;10.920;2024-03-17T11:45:26;24.00;94.40
6740;DHT22;3407;49.882;10.920;2024-03-17T11:50:22;25.90;93.30
6740;DHT22;3407;49.882;10.920;2024-03-17T11:55:18;26.50;92.20
6740;DHT22;3407;49.882;10.920;2024-03-17T12:00:22;24.60;90.90
6740;DHT22;3407;49.882;10.920;2024-03-17T12:05:18;23.20;91.60
6740;DHT22;3407;49.882;10.920;2024-03-17T12:10:16;24.00;91.80
6740;DHT22;3407;49.882;10.920;2024-03-17T12:15:19;24.80;93.70
6740;DHT22;3407;49.882;10.920;2024-03-17T12:20:19;25.10;89.20
6740;DHT22;3407;49.882;10.920;2024-03-17T12:25:17;25.90;91.00
6740;DHT22;3407;49.882;10.920;2024-03-17T12:30:13;26.60;90.00
6740;DHT22;3407;49.882;10.920;2024-03-17T12:35:15;26.30;89.70
6740;DHT22;3407;49.882;10.920;2024-03-17T12:40:19;25.50;87.50
6740;DHT22;3407;49.882;10.920;2024-03-17T12:45:20;25.10;88.10
6740;DHT22;3407;49.882;10.920;2024-03-17T12:50:16;24.10;83.10
6740;DHT22;3407;49.882;10.920;2024-03-17T12:55:18;23.00;84.80
6740;DHT22;3407;49.882;10.920;2024-03-17T13:00:33;22.50;87.70
6740;DHT22;3407;49.882;10.920;2024-03-17T13:05:35;22.60;99.90
6740;DHT22;3407;49.882;10.920;2024-03-17T13:10:31;22.50;87.40
6740;DHT22;3407;49.882;10.920;2024-03-17T13:15:31;22.20;88.70
6740;DHT22;3407;49.882;10.920;2024-03-17T13:20:31;22.00;84.00
6740;DHT22;3407;49.882;10.920;2024-03-17T13:25:28;21.70;83.90
6740;DHT22;3407;49.882;10.920;2024-03-17T13:30:32;21.50;84.30
6740;DHT22;3407;49.882;10.920;2024-03-17T13:35:29;20.80;85.20
6740;DHT22;3407;49.882;10.920;2024-03-17T13:40:26;20.20;85.10
6740;DHT22;3407;49.882;10.920;2024-03-17T13:45:23;19.90;89.60
6740;DHT22;3407;49.882;10.920;2024-03-17T13:50:19;19.30;88.20
6740;DHT22;3407;49.882;10.920;2024-03-17T13:55:19;18.70;90.00
6740;DHT22;3407;49.882;10.920;2024-03-17T14:00:15;18.10;88.60
6740;DHT22;3407;49.882;10.920;2024-03-17T14:05:15;17.80;91.10
6740;DHT22;3407;49.882;10.920;2024-03-17T14:10:13;17.60;90.90
6740;DHT22;3407;49.882;10.920;2024-03-17T14:15:11;17.10;91.10
6740;DHT22;3407;49.882;10.920;2024-03-17T14:20:07;17.00;91.60
6740;DHT22;3407;49.882;10.920;2024-03-17T14:25:06;17.40;91.40
6740;DHT22;3407;49.882;10.920;2024-03-17T14:30:03;17.30;91.30
6740;DHT22;3407;49.882;10.920;2024-03-17T14:34:59;17.00;91.30
6740;DHT22;3407;49.882;10.920;2024-03-17T14:39:55;16.70;91.90
6740;DHT22;3407;49.882;10.920;2024-03-17T14:44:50;16.40;93.50
6740;DHT22;3407;49.882;10.920;2024-03-17T14:49:46;16.10;94.10
6740;DHT22;3407;49.882;10.920;2024-03-17T14:54:41;15.90;93.50
6740;DHT22;3407;49.882;10.920;2024-03-17T14:59:37;15.40;93.80
6740;DHT22;3407;49.882;10.920;2024-03-17T15:04:34;15.10;94.60
6740;DHT22;3407;49.882;10.920;2024-03-17T15:09:29;15.10;95.20
6740;DHT22;3407;49.882;10.920;2024-03-17T15:14:25;15.20;96.20
6740;DHT22;3407;49.882;10.920;2024-03-17T15:19:20;15.10;95.70
6740;DHT22;3407;49.882;10.920;2024-03-17T15:24:16;14.90;96.60
6740;DHT22;3407;49.882;10.920;2024-03-17T15:29:11;14.70;96.70
6740;DHT22;3407;49.882;10.920;2024-03-17T15:34:07;14.60;97.80
6740;DHT22;3407;49.882;10.920;2024-03-17T15:39:03;14.40;97.40
6740;DHT22;3407;49.882;10.920;2024-03-17T15:44:01;14.30;98.80
6740;DHT22;3407;49.882;10.920;2024-03-17T15:48:57;14.30;99.90
6740;DHT22;3407;49.882;10.920;2024-03-17T15:53:54;14.20;99.90
6740;DHT22;3407;49.882;10.920;2024-03-17T15:58:49;14.20;99.90
6740;DHT22;3407;49.882;10.920;2024-03-17T16:03:46;14.10;99.90
6740;DHT22;3407;49.882;10.920;2024-03-17T16:08:46;14.00;99.90
6740;DHT22;3407;49.882;10.920;2024-03-17T16:13:43;13.90;99.90
6740;DHT22;3407;49.882;10.920;2024-03-17T16:18:40;13.60;99.90
6740;DHT22;3407;49.882;10.920;2024-03-17T16:23:42;13.40;99.90
6740;DHT22;3407;49.882;10.920;2024-03-17T16:28:38;13.30;99.90
6740;DHT22;3407;49.882;10.920;2024-03-17T16:33:34;13.20;99.90
6740;DHT22;3407;49.882;10.920;2024-03-17T16:38:32;13.00;99.90
6740;DHT22;3407;49.882;10.920;2024-03-17T16:43:55;12.80;99.90
6740;DHT22;3407;49.882;10.920;2024-03-17T16:48:51;12.60;99.90
6740;DHT22;3407;49.882;10.920;2024-03-17T16:53:47;12.60;99.90
6740;DHT22;3407;49.882;10.920;2024-03-17T16:58:44;12.50;99.90
6740;DHT22;3407;49.882;10.920;2024-03-17T17:03:41;12.50;99.90
6740;DHT22;3407;49.882;10.920;2024-03-17T17:08:36;12.50;99.90
6740;DHT22;3407;49.882;10.920;2024-03-17T17:13:32;12.40;99.90
6740;DHT22;3407;49.882;10.920;2024-03-17T17:23:52;12.10;99.90
6740;DHT22;3407;49.882;10.920;2024-03-17T17:28:58;12.00;99.90
6740;DHT22;3407;49.882;10.920;2024-03-17T17:33:55;11.80;99.90
6740;DHT22;3407;49.882;10.920;2024-03-17T17:38:52;11.70;99.90
6740;DHT22;3407;49.882;10.920;2024-03-17T17:43:50;11.60;99.90
6740;DHT22;3407;49.882;10.920;2024-03-17T17:48:46;11.50;99.90
6740;DHT22;3407;49.882;10.920;2024-03-17T17:53:43;11.50;99.90
6740;DHT22;3407;49.882;10.920;2024-03-17T17:58:40;11.40;99.90
6740;DHT22;3407;49.882;10.920;2024-03-17T18:03:37;11.30;99.90
6740;DHT22;3407;49.882;10.920;2024-03-17T18:08:33;11.20;99.90
6740;DHT22;3407;49.882;10.920;2024-03-17T18:13:29;11.10;99.90
6740;DHT22;3407;49.882;10.920;2024-03-17T18:18:27;11.00;99.90
6740;DHT22;3407;49.882;10.920;2024-03-17T18:23:23;10.80;99.90
6740;DHT22;3407;49.882;10.920;2024-03-17T18:28:20;10.70;99.90
6740;DHT22;3407;49.882;10.920;2024-03-17T18:33:16;10.60;99.90
6740;DHT22;3407;49.882;10.920;2024-03-17T18:38:12;10.40;99.90
6740;DHT22;3407;49.882;10.920;2024-03-17T18:43:08;10.30;99.90
6740;DHT22;3407;49.882;10.920;2024-03-17T18:48:03;10.10;99.90
6740;DHT22;3407;49.882;10.920;2024-03-17T18:52:59;10.00;99.90
6740;DHT22;3407;49.882;10.920;2024-03-17T18:57:55;9.90;1.00
6740;DHT22;3407;49.882;10.920;2024-03-17T19:02:50;9.70;1.00
6740;DHT22;3407;49.882;10.920;2024-03-17T19:07:46;9.60;1.00
6740;DHT22;3407;49.882;10.920;2024-03-17T19:12:45;9.50;1.00
6740;DHT22;3407;49.882;10.920;2024-03-17T19:17:40;9.30;1.00
6740;DHT22;3407;49.882;10.920;2024-03-17T19:22:42;9.20;99.90
6740;DHT22;3407;49.882;10.920;2024-03-17T19:27:41;9.10;99.90
6740;DHT22;3407;49.882;10.920;2024-03-17T19:32:36;9.10;99.90
6740;DHT22;3407;49.882;10.920;2024-03-17T19:37:32;9.10;99.90
6740;DHT22;3407;49.882;10.920;2024-03-17T19:42:28;9.10;99.90
6740;DHT22;3407;49.882;10.920;2024-03-17T19:47:23;9.00;99.90
6740;DHT22;3407;49.882;10.920;2024-03-17T19:52:19;9.00;99.90
6740;DHT22;3407;49.882;10.920;2024-03-17T19:57:16;8.90;99.90
6740;DHT22;3407;49.882;10.920;2024-03-17T20:02:12;8.80;99.90
6740;DHT22;3407;49.882;10.920;2024-03-17T20:07:08;8.60;1.00
6740;DHT22;3407;49.882;10.920;2024-03-17T20:12:04;8.40;41.60
6740;DHT22;3407;49.882;10.920;2024-03-17T20:17:00;8.40;99.90
6740;DHT22;3407;49.882;10.920;2024-03-17T20:21:59;8.50;99.90
6740;DHT22;3407;49.882;10.920;2024-03-17T20:26:54;8.50;1.00
6740;DHT22;3407;49.882;10.920;2024-03-17T20:31:50;8.20;51.50
6740;DHT22;3407;49.882;10.920;2024-03-17T20:36:46;8.00;1.00
6740;DHT22;3407;49.882;10.920;2024-03-17T20:41:41;8.00;1.00
6740;DHT22;3407;49.882;10.920;2024-03-17T20:46:38;8.20;99.90
6740;DHT22;3407;49.882;10.920;2024-03-17T20:51:33;8.30;1.00
6740;DHT22;3407;49.882;10.920;2024-03-17T20:56:29;8.30;99.90
6740;DHT22;3407;49.882;10.920;2024-03-17T21:01:25;8.20;1.00
6740;DHT22;3407;49.882;10.920;2024-03-17T21:06:20;8.00;44.30
6740;DHT22;3407;49.882;10.920;2024-03-17T21:11:20;7.70;99.90
6740;DHT22;3407;49.882;10.920;2024-03-17T21:16:15;7.70;1.00
6740;DHT22;3407;49.882;10.920;2024-03-17T21:21:11;7.70;99.90
6740;DHT22;3407;49.882;10.920;2024-03-17T21:26:07;7.70;99.90
6740;DHT22;3407;49.882;10.920;2024-03-17T21:31:04;7.60;1.00
6740;DHT22;3407;49.882;10.920;2024-03-17T21:36:05;7.40;1.00
6740;DHT22;3407;49.882;10.920;2024-03-17T21:41:01;7.30;93.50
6740;DHT22;3407;49.882;10.920;2024-03-17T21:46:00;7.10;78.20
6740;DHT22;3407;49.882;10.920;2024-03-17T21:50:56;6.90;1.00
6740;DHT22;3407;49.882;10.920;2024-03-17T21:56:00;6.80;1.00
6740;DHT22;3407;49.882;10.920;2024-03-17T22:01:01;6.60;99.90
6740;DHT22;3407;49.882;10.920;2024-03-17T22:05:59;6.70;1.00
6740;DHT22;3407;49.882;10.920;2024-03-17T22:10:55;6.70;1.00
6740;DHT22;3407;49.882;10.920;2024-03-17T22:15:58;6.80;1.00
6740;DHT22;3407;49.882;10.920;2024-03-17T22:20:58;6.90;99.90
6740;DHT22;3407;49.882;10.920;2024-03-17T22:25:54;6.70;1.00
6740;DHT22;3407;49.882;10.920;2024-03-17T22:30:54;6.50;1.00
6740;DHT22;3407;49.882;10.920;2024-03-17T22:36:02;6.40;1.00
6740;DHT22;3407;49.882;10.920;2024-03-17T22:41:05;6.40;99.90
6740;DHT22;3407;49.882;10.920;2024-03-17T22:46:04;6.40;99.90
6740;DHT22;3407;49.882;10.920;2024-03-17T22:50:59;6.40;10.10
6740;DHT22;3407;49.882;10.920;2024-03-17T22:55:55;6.40;1.00
6740;DHT22;3407;49.882;10.920;2024-03-17T23:00:51;6.50;1.00
6740;DHT22;3407;49.882;10.920;2024-03-17T23:05:47;6.50;1.00
6740;DHT22;3407;49.882;10.920;2024-03-17T23:10:44;6.40;1.00
6740;DHT22;3407;49.882;10.920;2024-03-17T23:15:40;6.40;1.00
6740;DHT22;3407;49.882;10.920;2024-03-17T23:20:36;6.50;99.90
6740;DHT22;3407;49.882;10.920;2024-03-17T23:25:32;6.60;1.00
6740;DHT22;3407;49.882;10.920;2024-03-17T23:30:27;6.60;99.90
6740;DHT22;3407;49.882;10.920;2024-03-17T23:35:23;6.50;1.00
6740;DHT22;3407;49.882;10.920;2024-03-17T23:40:18;6.50;99.90
6740;DHT22;3407;49.882;10.920;2024-03-17T23:45:17;6.60;99.90
6740;DHT22;3407;49.882;10.920;2024-03-17T23:50:13;6.60;1.10
6740;DHT22;3407;49.882;10.920;2024-03-17T23:55:10;6.70;99.90
